sensor_id;sensor_type;location;lat;lon;timestamp;P1;durP1;ratioP1;P2;durP2;ratioP2
12480;SDS011;6305;48.398;11.762;2023-07-28T00:01:31;6.05;;;3.92;;
12480;SDS011;6305;48.398;11.762;2023-07-28T00:03:58;5.32;;;4.18;;
12480;SDS011;6305;48.398;11.762;2023-07-28T00:06:25;5.18;;;4.00;;
12480;SDS011;6305;48.398;11.762;2023-07-28T00:08:52;5.15;;;3.78;;
12480;SDS011;6305;48.398;11.762;2023-07-28T00:11:19;6.25;;;3.67;;
12480;SDS011;6305;48.398;11.762;2023-07-28T00:13:48;5.45;;;4.07;;
12480;SDS011;6305;48.398;11.762;2023-07-28T00:16:15;4.68;;;3.97;;
12480;SDS011;6305;48.398;11.762;2023-07-28T00:18:42;4.57;;;3.78;;
12480;SDS011;6305;48.398;11.762;2023-07-28T00:21:09;5.35;;;3.63;;
12480;SDS011;6305;48.398;11.762;2023-07-28T00:23:36;3.97;;;3.53;;
12480;SDS011;6305;48.398;11.762;2023-07-28T00:26:03;4.72;;;3.65;;
12480;SDS011;6305;48.398;11.762;2023-07-28T00:28:30;7.28;;;3.97;;
12480;SDS011;6305;48.398;11.762;2023-07-28T00:30:58;6.57;;;4.50;;
12480;SDS011;6305;48.398;11.762;2023-07-28T00:33:25;5.93;;;4.28;;
12480;SDS011;6305;48.398;11.762;2023-07-28T00:35:53;4.93;;;4.03;;
12480;SDS011;6305;48.398;11.762;2023-07-28T00:38:20;5.13;;;4.25;;
12480;SDS011;6305;48.398;11.762;2023-07-28T00:40:47;6.45;;;3.83;;
12480;SDS011;6305;48.398;11.762;2023-07-28T00:43:14;4.88;;;3.58;;
12480;SDS011;6305;48.398;11.762;2023-07-28T00:45:41;5.47;;;3.90;;
12480;SDS011;6305;48.398;11.762;2023-07-28T00:48:11;6.82;;;4.38;;
12480;SDS011;6305;48.398;11.762;2023-07-28T00:50:40;6.97;;;5.00;;
12480;SDS011;6305;48.398;11.762;2023-07-28T00:53:08;5.57;;;4.88;;
12480;SDS011;6305;48.398;11.762;2023-07-28T00:55:37;6.25;;;4.07;;
12480;SDS011;6305;48.398;11.762;2023-07-28T00:58:05;5.78;;;4.32;;
12480;SDS011;6305;48.398;11.762;2023-07-28T01:00:31;4.80;;;4.05;;
12480;SDS011;6305;48.398;11.762;2023-07-28T01:02:58;5.18;;;4.03;;
12480;SDS011;6305;48.398;11.762;2023-07-28T01:05:28;5.32;;;4.03;;
12480;SDS011;6305;48.398;11.762;2023-07-28T01:08:01;7.28;;;4.35;;
12480;SDS011;6305;48.398;11.762;2023-07-28T01:10:33;6.03;;;4.40;;
12480;SDS011;6305;48.398;11.762;2023-07-28T01:13:00;6.78;;;4.40;;
12480;SDS011;6305;48.398;11.762;2023-07-28T01:15:28;5.63;;;4.53;;
12480;SDS011;6305;48.398;11.762;2023-07-28T01:17:55;6.05;;;4.80;;
12480;SDS011;6305;48.398;11.762;2023-07-28T01:20:22;7.32;;;4.85;;
12480;SDS011;6305;48.398;11.762;2023-07-28T01:22:59;6.40;;;4.30;;
12480;SDS011;6305;48.398;11.762;2023-07-28T01:25:36;6.32;;;4.78;;
12480;SDS011;6305;48.398;11.762;2023-07-28T01:28:14;7.43;;;5.47;;
12480;SDS011;6305;48.398;11.762;2023-07-28T01:30:42;5.90;;;4.68;;
12480;SDS011;6305;48.398;11.762;2023-07-28T01:33:10;5.95;;;4.90;;
12480;SDS011;6305;48.398;11.762;2023-07-28T01:35:37;8.27;;;5.60;;
12480;SDS011;6305;48.398;11.762;2023-07-28T01:38:04;9.13;;;5.45;;
12480;SDS011;6305;48.398;11.762;2023-07-28T01:40:31;8.25;;;5.60;;
12480;SDS011;6305;48.398;11.762;2023-07-28T01:42:58;6.90;;;5.68;;
12480;SDS011;6305;48.398;11.762;2023-07-28T01:45:26;6.18;;;5.35;;
12480;SDS011;6305;48.398;11.762;2023-07-28T01:47:53;9.68;;;5.30;;
12480;SDS011;6305;48.398;11.762;2023-07-28T01:50:20;7.43;;;5.10;;
12480;SDS011;6305;48.398;11.762;2023-07-28T01:52:47;7.88;;;5.28;;
12480;SDS011;6305;48.398;11.762;2023-07-28T01:55:14;5.97;;;5.10;;
12480;SDS011;6305;48.398;11.762;2023-07-28T01:57:49;8.40;;;6.10;;
12480;SDS011;6305;48.398;11.762;2023-07-28T02:00:17;8.02;;;5.72;;
12480;SDS011;6305;48.398;11.762;2023-07-28T02:02:48;10.00;;;5.97;;
12480;SDS011;6305;48.398;11.762;2023-07-28T02:05:15;6.90;;;5.55;;
12480;SDS011;6305;48.398;11.762;2023-07-28T02:07:42;9.18;;;6.10;;
12480;SDS011;6305;48.398;11.762;2023-07-28T02:10:10;7.93;;;5.93;;
12480;SDS011;6305;48.398;11.762;2023-07-28T02:12:37;10.60;;;6.45;;
12480;SDS011;6305;48.398;11.762;2023-07-28T02:15:05;9.82;;;6.18;;
12480;SDS011;6305;48.398;11.762;2023-07-28T02:17:33;8.93;;;5.90;;
12480;SDS011;6305;48.398;11.762;2023-07-28T02:20:01;8.45;;;6.18;;
12480;SDS011;6305;48.398;11.762;2023-07-28T02:22:29;9.15;;;6.13;;
12480;SDS011;6305;48.398;11.762;2023-07-28T02:24:56;7.88;;;6.05;;
12480;SDS011;6305;48.398;11.762;2023-07-28T02:27:26;9.43;;;6.80;;
12480;SDS011;6305;48.398;11.762;2023-07-28T02:29:54;8.68;;;6.60;;
12480;SDS011;6305;48.398;11.762;2023-07-28T02:32:21;10.63;;;6.45;;
12480;SDS011;6305;48.398;11.762;2023-07-28T02:34:49;11.52;;;6.22;;
12480;SDS011;6305;48.398;11.762;2023-07-28T02:37:17;9.35;;;6.20;;
12480;SDS011;6305;48.398;11.762;2023-07-28T02:39:44;8.57;;;6.20;;
12480;SDS011;6305;48.398;11.762;2023-07-28T02:42:11;7.80;;;6.20;;
12480;SDS011;6305;48.398;11.762;2023-07-28T02:44:38;8.63;;;6.10;;
12480;SDS011;6305;48.398;11.762;2023-07-28T02:47:05;9.48;;;6.13;;
12480;SDS011;6305;48.398;11.762;2023-07-28T02:49:34;8.40;;;5.75;;
12480;SDS011;6305;48.398;11.762;2023-07-28T02:52:01;7.57;;;5.65;;
12480;SDS011;6305;48.398;11.762;2023-07-28T02:54:30;8.32;;;5.97;;
12480;SDS011;6305;48.398;11.762;2023-07-28T02:56:57;10.10;;;6.40;;
12480;SDS011;6305;48.398;11.762;2023-07-28T02:59:24;9.10;;;6.32;;
12480;SDS011;6305;48.398;11.762;2023-07-28T03:01:51;9.13;;;6.50;;
12480;SDS011;6305;48.398;11.762;2023-07-28T03:04:20;8.15;;;6.15;;
12480;SDS011;6305;48.398;11.762;2023-07-28T03:07:05;9.77;;;6.65;;
12480;SDS011;6305;48.398;11.762;2023-07-28T03:09:36;11.60;;;6.75;;
12480;SDS011;6305;48.398;11.762;2023-07-28T03:12:04;10.38;;;6.20;;
12480;SDS011;6305;48.398;11.762;2023-07-28T03:14:31;10.18;;;7.30;;
12480;SDS011;6305;48.398;11.762;2023-07-28T03:16:58;9.90;;;6.38;;
12480;SDS011;6305;48.398;11.762;2023-07-28T03:19:26;10.05;;;6.68;;
12480;SDS011;6305;48.398;11.762;2023-07-28T03:21:53;9.82;;;6.88;;
12480;SDS011;6305;48.398;11.762;2023-07-28T03:24:20;11.23;;;6.90;;
12480;SDS011;6305;48.398;11.762;2023-07-28T03:26:49;10.35;;;7.75;;
12480;SDS011;6305;48.398;11.762;2023-07-28T03:29:16;10.48;;;6.85;;
12480;SDS011;6305;48.398;11.762;2023-07-28T03:31:43;10.68;;;6.88;;
12480;SDS011;6305;48.398;11.762;2023-07-28T03:34:10;11.27;;;6.47;;
12480;SDS011;6305;48.398;11.762;2023-07-28T03:36:38;13.60;;;7.43;;
12480;SDS011;6305;48.398;11.762;2023-07-28T03:39:05;11.35;;;7.35;;
12480;SDS011;6305;48.398;11.762;2023-07-28T03:41:32;11.27;;;7.70;;
12480;SDS011;6305;48.398;11.762;2023-07-28T03:44:00;10.68;;;7.22;;
12480;SDS011;6305;48.398;11.762;2023-07-28T03:46:28;11.50;;;7.82;;
12480;SDS011;6305;48.398;11.762;2023-07-28T03:48:55;12.30;;;8.23;;
12480;SDS011;6305;48.398;11.762;2023-07-28T03:51:23;10.45;;;7.57;;
12480;SDS011;6305;48.398;11.762;2023-07-28T03:53:50;10.38;;;7.28;;
12480;SDS011;6305;48.398;11.762;2023-07-28T03:56:17;13.10;;;8.10;;
12480;SDS011;6305;48.398;11.762;2023-07-28T03:58:45;10.40;;;7.25;;
12480;SDS011;6305;48.398;11.762;2023-07-28T04:01:13;13.13;;;7.65;;
12480;SDS011;6305;48.398;11.762;2023-07-28T04:03:41;13.32;;;7.90;;
12480;SDS011;6305;48.398;11.762;2023-07-28T04:06:09;13.48;;;8.40;;
12480;SDS011;6305;48.398;11.762;2023-07-28T04:08:37;11.90;;;8.43;;
12480;SDS011;6305;48.398;11.762;2023-07-28T04:11:04;12.38;;;8.40;;
12480;SDS011;6305;48.398;11.762;2023-07-28T04:13:31;12.15;;;8.30;;
12480;SDS011;6305;48.398;11.762;2023-07-28T04:15:58;13.23;;;8.82;;
12480;SDS011;6305;48.398;11.762;2023-07-28T04:18:26;12.23;;;8.38;;
12480;SDS011;6305;48.398;11.762;2023-07-28T04:20:53;10.48;;;7.85;;
12480;SDS011;6305;48.398;11.762;2023-07-28T04:23:21;9.63;;;7.97;;
12480;SDS011;6305;48.398;11.762;2023-07-28T04:25:48;12.27;;;8.13;;
12480;SDS011;6305;48.398;11.762;2023-07-28T04:28:15;11.68;;;7.70;;
12480;SDS011;6305;48.398;11.762;2023-07-28T04:30:42;12.25;;;8.07;;
12480;SDS011;6305;48.398;11.762;2023-07-28T04:33:20;10.65;;;7.75;;
12480;SDS011;6305;48.398;11.762;2023-07-28T04:35:48;10.68;;;7.53;;
12480;SDS011;6305;48.398;11.762;2023-07-28T04:38:19;11.25;;;7.65;;
12480;SDS011;6305;48.398;11.762;2023-07-28T04:40:51;10.27;;;7.32;;
12480;SDS011;6305;48.398;11.762;2023-07-28T04:43:23;14.02;;;8.65;;
12480;SDS011;6305;48.398;11.762;2023-07-28T04:45:54;8.43;;;6.57;;
12480;SDS011;6305;48.398;11.762;2023-07-28T04:48:22;8.95;;;6.60;;
12480;SDS011;6305;48.398;11.762;2023-07-28T04:50:51;7.90;;;6.00;;
12480;SDS011;6305;48.398;11.762;2023-07-28T04:53:21;9.20;;;6.10;;
12480;SDS011;6305;48.398;11.762;2023-07-28T04:56:10;8.98;;;5.65;;
12480;SDS011;6305;48.398;11.762;2023-07-28T04:58:37;9.40;;;5.88;;
12480;SDS011;6305;48.398;11.762;2023-07-28T05:01:04;11.52;;;4.97;;
12480;SDS011;6305;48.398;11.762;2023-07-28T05:03:34;8.77;;;4.47;;
12480;SDS011;6305;48.398;11.762;2023-07-28T05:06:25;8.05;;;4.85;;
12480;SDS011;6305;48.398;11.762;2023-07-28T05:08:52;5.03;;;4.13;;
12480;SDS011;6305;48.398;11.762;2023-07-28T05:11:25;6.40;;;3.90;;
12480;SDS011;6305;48.398;11.762;2023-07-28T05:13:53;5.28;;;3.42;;
12480;SDS011;6305;48.398;11.762;2023-07-28T05:16:20;4.40;;;3.35;;
12480;SDS011;6305;48.398;11.762;2023-07-28T05:19:16;5.13;;;3.88;;
12480;SDS011;6305;48.398;11.762;2023-07-28T05:22:03;6.40;;;3.17;;
12480;SDS011;6305;48.398;11.762;2023-07-28T05:24:43;5.05;;;3.35;;
12480;SDS011;6305;48.398;11.762;2023-07-28T05:27:11;5.13;;;3.95;;
12480;SDS011;6305;48.398;11.762;2023-07-28T05:29:41;6.40;;;3.35;;
12480;SDS011;6305;48.398;11.762;2023-07-28T05:32:08;6.13;;;4.15;;
12480;SDS011;6305;48.398;11.762;2023-07-28T05:34:53;4.90;;;3.20;;
12480;SDS011;6305;48.398;11.762;2023-07-28T05:37:22;4.85;;;3.25;;
12480;SDS011;6305;48.398;11.762;2023-07-28T05:39:49;3.97;;;2.58;;
12480;SDS011;6305;48.398;11.762;2023-07-28T05:42:18;3.55;;;2.85;;
12480;SDS011;6305;48.398;11.762;2023-07-28T05:44:46;3.30;;;2.97;;
12480;SDS011;6305;48.398;11.762;2023-07-28T05:47:13;4.40;;;3.17;;
12480;SDS011;6305;48.398;11.762;2023-07-28T05:49:40;4.05;;;3.08;;
12480;SDS011;6305;48.398;11.762;2023-07-28T05:52:07;3.92;;;2.90;;
12480;SDS011;6305;48.398;11.762;2023-07-28T05:54:35;4.30;;;3.10;;
12480;SDS011;6305;48.398;11.762;2023-07-28T05:57:03;3.90;;;3.35;;
12480;SDS011;6305;48.398;11.762;2023-07-28T05:59:30;3.40;;;2.60;;
12480;SDS011;6305;48.398;11.762;2023-07-28T06:01:57;3.13;;;2.70;;
12480;SDS011;6305;48.398;11.762;2023-07-28T06:04:47;3.13;;;2.83;;
12480;SDS011;6305;48.398;11.762;2023-07-28T06:07:14;4.95;;;2.63;;
12480;SDS011;6305;48.398;11.762;2023-07-28T06:09:44;4.05;;;2.90;;
12480;SDS011;6305;48.398;11.762;2023-07-28T06:12:12;3.60;;;2.50;;
12480;SDS011;6305;48.398;11.762;2023-07-28T06:14:41;3.45;;;2.45;;
12480;SDS011;6305;48.398;11.762;2023-07-28T06:17:10;3.15;;;2.72;;
12480;SDS011;6305;48.398;11.762;2023-07-28T06:19:37;3.63;;;2.90;;
12480;SDS011;6305;48.398;11.762;2023-07-28T06:22:05;3.78;;;2.70;;
12480;SDS011;6305;48.398;11.762;2023-07-28T06:24:36;3.83;;;2.30;;
12480;SDS011;6305;48.398;11.762;2023-07-28T06:27:05;3.25;;;2.75;;
12480;SDS011;6305;48.398;11.762;2023-07-28T06:29:36;3.33;;;2.67;;
12480;SDS011;6305;48.398;11.762;2023-07-28T06:32:04;2.88;;;2.10;;
12480;SDS011;6305;48.398;11.762;2023-07-28T06:34:31;2.85;;;2.63;;
12480;SDS011;6305;48.398;11.762;2023-07-28T06:36:59;2.63;;;2.42;;
12480;SDS011;6305;48.398;11.762;2023-07-28T06:39:26;2.30;;;2.10;;
12480;SDS011;6305;48.398;11.762;2023-07-28T06:41:55;2.38;;;2.13;;
12480;SDS011;6305;48.398;11.762;2023-07-28T06:44:25;2.40;;;2.05;;
12480;SDS011;6305;48.398;11.762;2023-07-28T06:46:52;2.60;;;2.40;;
12480;SDS011;6305;48.398;11.762;2023-07-28T06:49:19;3.47;;;2.40;;
12480;SDS011;6305;48.398;11.762;2023-07-28T06:51:46;2.70;;;2.30;;
12480;SDS011;6305;48.398;11.762;2023-07-28T06:54:13;4.13;;;2.55;;
12480;SDS011;6305;48.398;11.762;2023-07-28T06:56:40;3.15;;;2.67;;
12480;SDS011;6305;48.398;11.762;2023-07-28T06:59:07;3.22;;;2.10;;
12480;SDS011;6305;48.398;11.762;2023-07-28T07:01:36;3.47;;;2.47;;
12480;SDS011;6305;48.398;11.762;2023-07-28T07:04:03;2.90;;;2.30;;
12480;SDS011;6305;48.398;11.762;2023-07-28T07:06:32;3.15;;;2.10;;
12480;SDS011;6305;48.398;11.762;2023-07-28T07:08:59;2.80;;;2.35;;
12480;SDS011;6305;48.398;11.762;2023-07-28T07:11:26;2.80;;;2.10;;
12480;SDS011;6305;48.398;11.762;2023-07-28T07:13:53;2.75;;;2.42;;
12480;SDS011;6305;48.398;11.762;2023-07-28T07:16:20;3.45;;;2.20;;
12480;SDS011;6305;48.398;11.762;2023-07-28T07:18:48;2.33;;;2.13;;
12480;SDS011;6305;48.398;11.762;2023-07-28T07:21:17;4.05;;;2.20;;
12480;SDS011;6305;48.398;11.762;2023-07-28T07:23:44;3.38;;;2.20;;
12480;SDS011;6305;48.398;11.762;2023-07-28T07:26:24;3.58;;;2.30;;
12480;SDS011;6305;48.398;11.762;2023-07-28T07:28:51;2.38;;;2.17;;
12480;SDS011;6305;48.398;11.762;2023-07-28T07:31:18;3.30;;;2.40;;
12480;SDS011;6305;48.398;11.762;2023-07-28T07:33:45;3.53;;;2.50;;
12480;SDS011;6305;48.398;11.762;2023-07-28T07:36:14;2.70;;;2.20;;
12480;SDS011;6305;48.398;11.762;2023-07-28T07:38:41;5.03;;;2.13;;
12480;SDS011;6305;48.398;11.762;2023-07-28T07:41:11;3.55;;;2.28;;
12480;SDS011;6305;48.398;11.762;2023-07-28T07:43:41;2.40;;;2.00;;
12480;SDS011;6305;48.398;11.762;2023-07-28T07:46:08;2.88;;;2.45;;
12480;SDS011;6305;48.398;11.762;2023-07-28T07:48:35;2.47;;;2.25;;
12480;SDS011;6305;48.398;11.762;2023-07-28T07:51:03;3.00;;;1.92;;
12480;SDS011;6305;48.398;11.762;2023-07-28T07:53:30;2.40;;;2.00;;
12480;SDS011;6305;48.398;11.762;2023-07-28T07:55:57;2.67;;;2.45;;
12480;SDS011;6305;48.398;11.762;2023-07-28T07:58:24;3.88;;;2.38;;
12480;SDS011;6305;48.398;11.762;2023-07-28T08:00:51;3.55;;;2.50;;
12480;SDS011;6305;48.398;11.762;2023-07-28T08:03:18;2.42;;;2.22;;
12480;SDS011;6305;48.398;11.762;2023-07-28T08:05:45;2.88;;;2.58;;
12480;SDS011;6305;48.398;11.762;2023-07-28T08:08:14;2.40;;;2.20;;
12480;SDS011;6305;48.398;11.762;2023-07-28T08:10:42;3.30;;;2.50;;
12480;SDS011;6305;48.398;11.762;2023-07-28T08:13:09;3.20;;;2.45;;
12480;SDS011;6305;48.398;11.762;2023-07-28T08:15:36;5.45;;;2.40;;
12480;SDS011;6305;48.398;11.762;2023-07-28T08:18:03;2.30;;;2.10;;
12480;SDS011;6305;48.398;11.762;2023-07-28T08:20:31;3.55;;;2.38;;
12480;SDS011;6305;48.398;11.762;2023-07-28T08:22:57;3.13;;;2.45;;
12480;SDS011;6305;48.398;11.762;2023-07-28T08:25:26;3.55;;;2.20;;
12480;SDS011;6305;48.398;11.762;2023-07-28T08:27:53;2.95;;;2.40;;
12480;SDS011;6305;48.398;11.762;2023-07-28T08:30:20;2.15;;;1.95;;
12480;SDS011;6305;48.398;11.762;2023-07-28T08:32:47;2.30;;;2.10;;
12480;SDS011;6305;48.398;11.762;2023-07-28T08:35:15;2.67;;;2.20;;
12480;SDS011;6305;48.398;11.762;2023-07-28T08:37:43;3.75;;;1.90;;
12480;SDS011;6305;48.398;11.762;2023-07-28T08:40:11;3.88;;;2.13;;
12480;SDS011;6305;48.398;11.762;2023-07-28T08:42:39;3.15;;;2.33;;
12480;SDS011;6305;48.398;11.762;2023-07-28T08:45:07;5.03;;;2.33;;
12480;SDS011;6305;48.398;11.762;2023-07-28T08:47:35;2.35;;;2.10;;
12480;SDS011;6305;48.398;11.762;2023-07-28T08:50:03;3.15;;;2.28;;
12480;SDS011;6305;48.398;11.762;2023-07-28T08:52:31;2.80;;;2.30;;
12480;SDS011;6305;48.398;11.762;2023-07-28T08:54:59;4.55;;;2.30;;
12480;SDS011;6305;48.398;11.762;2023-07-28T08:57:26;2.92;;;2.47;;
12480;SDS011;6305;48.398;11.762;2023-07-28T08:59:55;3.60;;;2.20;;
12480;SDS011;6305;48.398;11.762;2023-07-28T09:02:22;2.70;;;2.33;;
12480;SDS011;6305;48.398;11.762;2023-07-28T09:04:49;2.58;;;2.20;;
12480;SDS011;6305;48.398;11.762;2023-07-28T09:07:16;3.13;;;2.40;;
12480;SDS011;6305;48.398;11.762;2023-07-28T09:09:43;3.17;;;2.50;;
12480;SDS011;6305;48.398;11.762;2023-07-28T09:12:11;2.35;;;2.00;;
12480;SDS011;6305;48.398;11.762;2023-07-28T09:14:38;2.95;;;2.38;;
12480;SDS011;6305;48.398;11.762;2023-07-28T09:17:07;3.15;;;2.38;;
12480;SDS011;6305;48.398;11.762;2023-07-28T09:19:48;4.28;;;1.95;;
12480;SDS011;6305;48.398;11.762;2023-07-28T09:22:17;2.50;;;2.30;;
12480;SDS011;6305;48.398;11.762;2023-07-28T09:24:44;3.80;;;2.22;;
12480;SDS011;6305;48.398;11.762;2023-07-28T09:27:18;2.33;;;2.03;;
12480;SDS011;6305;48.398;11.762;2023-07-28T09:29:47;2.65;;;2.45;;
12480;SDS011;6305;48.398;11.762;2023-07-28T09:32:17;2.75;;;2.13;;
12480;SDS011;6305;48.398;11.762;2023-07-28T09:35:04;2.53;;;2.15;;
12480;SDS011;6305;48.398;11.762;2023-07-28T09:37:37;3.60;;;2.53;;
12480;SDS011;6305;48.398;11.762;2023-07-28T09:40:06;2.85;;;2.50;;
12480;SDS011;6305;48.398;11.762;2023-07-28T09:42:37;3.80;;;2.67;;
12480;SDS011;6305;48.398;11.762;2023-07-28T09:45:05;3.92;;;2.20;;
12480;SDS011;6305;48.398;11.762;2023-07-28T09:47:35;2.40;;;2.20;;
12480;SDS011;6305;48.398;11.762;2023-07-28T09:50:03;2.30;;;2.10;;
12480;SDS011;6305;48.398;11.762;2023-07-28T09:52:33;2.78;;;1.92;;
12480;SDS011;6305;48.398;11.762;2023-07-28T09:55:04;2.38;;;2.00;;
12480;SDS011;6305;48.398;11.762;2023-07-28T09:57:35;3.40;;;2.00;;
12480;SDS011;6305;48.398;11.762;2023-07-28T10:00:05;3.33;;;2.10;;
12480;SDS011;6305;48.398;11.762;2023-07-28T10:02:39;2.90;;;2.22;;
12480;SDS011;6305;48.398;11.762;2023-07-28T10:05:06;2.78;;;2.35;;
12480;SDS011;6305;48.398;11.762;2023-07-28T10:07:36;4.32;;;2.15;;
12480;SDS011;6305;48.398;11.762;2023-07-28T10:10:06;2.97;;;2.40;;
12480;SDS011;6305;48.398;11.762;2023-07-28T10:12:39;3.22;;;2.33;;
12480;SDS011;6305;48.398;11.762;2023-07-28T10:15:08;3.22;;;2.20;;
12480;SDS011;6305;48.398;11.762;2023-07-28T10:17:44;3.22;;;2.58;;
12480;SDS011;6305;48.398;11.762;2023-07-28T10:20:32;2.72;;;2.20;;
12480;SDS011;6305;48.398;11.762;2023-07-28T10:23:05;2.67;;;2.30;;
12480;SDS011;6305;48.398;11.762;2023-07-28T10:25:34;4.18;;;2.00;;
12480;SDS011;6305;48.398;11.762;2023-07-28T10:28:03;3.42;;;2.10;;
12480;SDS011;6305;48.398;11.762;2023-07-28T10:30:38;5.18;;;2.38;;
12480;SDS011;6305;48.398;11.762;2023-07-28T10:33:26;2.40;;;2.20;;
12480;SDS011;6305;48.398;11.762;2023-07-28T10:35:58;3.08;;;2.03;;
12480;SDS011;6305;48.398;11.762;2023-07-28T10:38:28;3.95;;;2.30;;
12480;SDS011;6305;48.398;11.762;2023-07-28T10:41:05;2.88;;;2.40;;
12480;SDS011;6305;48.398;11.762;2023-07-28T10:43:33;2.63;;;2.20;;
12480;SDS011;6305;48.398;11.762;2023-07-28T10:46:00;6.25;;;2.45;;
12480;SDS011;6305;48.398;11.762;2023-07-28T10:48:29;2.70;;;2.38;;
12480;SDS011;6305;48.398;11.762;2023-07-28T10:50:56;2.47;;;2.28;;
12480;SDS011;6305;48.398;11.762;2023-07-28T10:53:22;3.05;;;2.40;;
12480;SDS011;6305;48.398;11.762;2023-07-28T10:55:50;2.65;;;2.38;;
12480;SDS011;6305;48.398;11.762;2023-07-28T10:58:17;3.67;;;2.30;;
12480;SDS011;6305;48.398;11.762;2023-07-28T11:00:50;2.45;;;2.15;;
12480;SDS011;6305;48.398;11.762;2023-07-28T11:03:17;3.35;;;2.53;;
12480;SDS011;6305;48.398;11.762;2023-07-28T11:05:47;3.08;;;2.60;;
12480;SDS011;6305;48.398;11.762;2023-07-28T11:08:15;2.58;;;2.35;;
12480;SDS011;6305;48.398;11.762;2023-07-28T11:10:43;2.63;;;2.30;;
12480;SDS011;6305;48.398;11.762;2023-07-28T11:13:10;4.03;;;2.42;;
12480;SDS011;6305;48.398;11.762;2023-07-28T11:15:37;3.38;;;2.47;;
12480;SDS011;6305;48.398;11.762;2023-07-28T11:18:04;2.85;;;2.30;;
12480;SDS011;6305;48.398;11.762;2023-07-28T11:20:32;3.40;;;2.20;;
12480;SDS011;6305;48.398;11.762;2023-07-28T11:23:01;2.90;;;2.60;;
12480;SDS011;6305;48.398;11.762;2023-07-28T11:25:30;2.28;;;2.05;;
12480;SDS011;6305;48.398;11.762;2023-07-28T11:28:00;3.65;;;2.67;;
12480;SDS011;6305;48.398;11.762;2023-07-28T11:30:28;2.83;;;2.50;;
12480;SDS011;6305;48.398;11.762;2023-07-28T11:32:55;2.35;;;1.95;;
12480;SDS011;6305;48.398;11.762;2023-07-28T11:35:22;5.72;;;2.50;;
12480;SDS011;6305;48.398;11.762;2023-07-28T11:37:50;3.88;;;2.40;;
12480;SDS011;6305;48.398;11.762;2023-07-28T11:40:21;3.05;;;2.50;;
12480;SDS011;6305;48.398;11.762;2023-07-28T11:43:00;4.32;;;2.30;;
12480;SDS011;6305;48.398;11.762;2023-07-28T11:45:29;3.42;;;2.90;;
12480;SDS011;6305;48.398;11.762;2023-07-28T11:47:56;4.47;;;2.83;;
12480;SDS011;6305;48.398;11.762;2023-07-28T11:50:24;3.22;;;2.35;;
12480;SDS011;6305;48.398;11.762;2023-07-28T11:52:53;5.15;;;3.00;;
12480;SDS011;6305;48.398;11.762;2023-07-28T11:55:22;4.55;;;2.75;;
12480;SDS011;6305;48.398;11.762;2023-07-28T11:57:50;4.40;;;2.33;;
12480;SDS011;6305;48.398;11.762;2023-07-28T12:00:18;2.92;;;2.60;;
12480;SDS011;6305;48.398;11.762;2023-07-28T12:03:00;5.78;;;3.22;;
12480;SDS011;6305;48.398;11.762;2023-07-28T12:05:29;4.03;;;2.97;;
12480;SDS011;6305;48.398;11.762;2023-07-28T12:07:57;4.03;;;3.15;;
12480;SDS011;6305;48.398;11.762;2023-07-28T12:10:25;3.45;;;2.90;;
12480;SDS011;6305;48.398;11.762;2023-07-28T12:12:53;3.85;;;2.90;;
12480;SDS011;6305;48.398;11.762;2023-07-28T12:15:21;3.22;;;2.47;;
12480;SDS011;6305;48.398;11.762;2023-07-28T12:18:09;3.83;;;2.40;;
12480;SDS011;6305;48.398;11.762;2023-07-28T12:20:39;3.53;;;2.60;;
12480;SDS011;6305;48.398;11.762;2023-07-28T12:23:07;3.30;;;2.40;;
12480;SDS011;6305;48.398;11.762;2023-07-28T12:25:36;2.90;;;2.35;;
12480;SDS011;6305;48.398;11.762;2023-07-28T12:28:04;2.55;;;2.25;;
12480;SDS011;6305;48.398;11.762;2023-07-28T12:30:32;3.50;;;2.40;;
12480;SDS011;6305;48.398;11.762;2023-07-28T12:32:59;2.67;;;2.33;;
12480;SDS011;6305;48.398;11.762;2023-07-28T12:35:26;2.83;;;2.40;;
12480;SDS011;6305;48.398;11.762;2023-07-28T12:37:56;3.90;;;2.40;;
12480;SDS011;6305;48.398;11.762;2023-07-28T12:40:25;2.50;;;1.98;;
12480;SDS011;6305;48.398;11.762;2023-07-28T12:42:55;2.40;;;2.08;;
12480;SDS011;6305;48.398;11.762;2023-07-28T12:45:23;2.53;;;2.20;;
12480;SDS011;6305;48.398;11.762;2023-07-28T12:47:51;2.63;;;2.42;;
12480;SDS011;6305;48.398;11.762;2023-07-28T12:50:19;2.92;;;2.50;;
12480;SDS011;6305;48.398;11.762;2023-07-28T12:52:46;3.63;;;2.58;;
12480;SDS011;6305;48.398;11.762;2023-07-28T12:55:14;2.72;;;2.15;;
12480;SDS011;6305;48.398;11.762;2023-07-28T12:58:00;3.53;;;2.30;;
12480;SDS011;6305;48.398;11.762;2023-07-28T13:00:27;2.60;;;2.35;;
12480;SDS011;6305;48.398;11.762;2023-07-28T13:02:54;2.65;;;2.08;;
12480;SDS011;6305;48.398;11.762;2023-07-28T13:05:21;2.50;;;2.30;;
12480;SDS011;6305;48.398;11.762;2023-07-28T13:07:49;2.88;;;2.38;;
12480;SDS011;6305;48.398;11.762;2023-07-28T13:10:16;2.60;;;2.40;;
12480;SDS011;6305;48.398;11.762;2023-07-28T13:12:43;2.50;;;2.30;;
12480;SDS011;6305;48.398;11.762;2023-07-28T13:15:12;2.60;;;2.40;;
12480;SDS011;6305;48.398;11.762;2023-07-28T13:17:39;2.88;;;2.40;;
12480;SDS011;6305;48.398;11.762;2023-07-28T13:20:06;3.03;;;2.45;;
12480;SDS011;6305;48.398;11.762;2023-07-28T13:22:34;2.47;;;2.10;;
12480;SDS011;6305;48.398;11.762;2023-07-28T13:25:02;3.15;;;2.35;;
12480;SDS011;6305;48.398;11.762;2023-07-28T13:27:29;3.20;;;2.35;;
12480;SDS011;6305;48.398;11.762;2023-07-28T13:29:57;2.50;;;2.30;;
12480;SDS011;6305;48.398;11.762;2023-07-28T13:32:25;3.03;;;2.72;;
12480;SDS011;6305;48.398;11.762;2023-07-28T13:34:52;3.92;;;2.25;;
12480;SDS011;6305;48.398;11.762;2023-07-28T13:37:20;4.72;;;2.60;;
12480;SDS011;6305;48.398;11.762;2023-07-28T13:39:47;2.97;;;2.58;;
12480;SDS011;6305;48.398;11.762;2023-07-28T13:42:14;3.42;;;2.63;;
12480;SDS011;6305;48.398;11.762;2023-07-28T13:44:41;3.20;;;2.55;;
12480;SDS011;6305;48.398;11.762;2023-07-28T13:47:08;3.28;;;2.97;;
12480;SDS011;6305;48.398;11.762;2023-07-28T13:49:37;3.10;;;2.60;;
12480;SDS011;6305;48.398;11.762;2023-07-28T13:52:04;3.03;;;2.72;;
12480;SDS011;6305;48.398;11.762;2023-07-28T13:54:32;3.53;;;2.50;;
12480;SDS011;6305;48.398;11.762;2023-07-28T13:56:59;3.15;;;2.50;;
12480;SDS011;6305;48.398;11.762;2023-07-28T13:59:26;3.20;;;2.72;;
12480;SDS011;6305;48.398;11.762;2023-07-28T14:01:53;4.40;;;2.42;;
12480;SDS011;6305;48.398;11.762;2023-07-28T14:04:21;2.90;;;2.60;;
12480;SDS011;6305;48.398;11.762;2023-07-28T14:06:49;6.72;;;2.60;;
12480;SDS011;6305;48.398;11.762;2023-07-28T14:09:16;5.85;;;2.72;;
12480;SDS011;6305;48.398;11.762;2023-07-28T14:11:44;2.80;;;2.50;;
12480;SDS011;6305;48.398;11.762;2023-07-28T14:14:11;2.75;;;2.20;;
12480;SDS011;6305;48.398;11.762;2023-07-28T14:16:38;3.00;;;2.50;;
12480;SDS011;6305;48.398;11.762;2023-07-28T14:19:05;3.05;;;2.58;;
12480;SDS011;6305;48.398;11.762;2023-07-28T14:21:32;3.63;;;2.55;;
12480;SDS011;6305;48.398;11.762;2023-07-28T14:24:00;3.13;;;2.35;;
12480;SDS011;6305;48.398;11.762;2023-07-28T14:26:27;3.30;;;2.58;;
12480;SDS011;6305;48.398;11.762;2023-07-28T14:28:54;3.00;;;2.40;;
12480;SDS011;6305;48.398;11.762;2023-07-28T14:31:21;3.67;;;2.30;;
12480;SDS011;6305;48.398;11.762;2023-07-28T14:33:48;3.13;;;2.70;;
12480;SDS011;6305;48.398;11.762;2023-07-28T14:36:15;5.72;;;2.70;;
12480;SDS011;6305;48.398;11.762;2023-07-28T14:38:42;6.65;;;2.75;;
12480;SDS011;6305;48.398;11.762;2023-07-28T14:41:11;3.88;;;3.10;;
12480;SDS011;6305;48.398;11.762;2023-07-28T14:43:38;4.38;;;2.83;;
12480;SDS011;6305;48.398;11.762;2023-07-28T14:46:05;3.40;;;2.88;;
12480;SDS011;6305;48.398;11.762;2023-07-28T14:48:32;3.90;;;3.17;;
12480;SDS011;6305;48.398;11.762;2023-07-28T14:51:00;5.10;;;3.20;;
12480;SDS011;6305;48.398;11.762;2023-07-28T14:53:28;6.35;;;3.85;;
12480;SDS011;6305;48.398;11.762;2023-07-28T14:56:00;4.32;;;2.72;;